sensor_id;sensor_type;location;lat;lon;timestamp;pressure;altitude;pressure_sealevel;temperature;humidity
85066;BME280;75401;52.588;13.224;2024-03-29T00:00:56;99478.78;;;12.45;55.81
85066;BME280;75401;52.588;13.224;2024-03-29T00:03:22;99481.53;;;12.51;55.53
85066;BME280;75401;52.588;13.224;2024-03-29T00:05:47;99494.28;;;12.49;56.38
85066;BME280;75401;52.588;13.224;2024-03-29T00:08:12;99504.75;;;12.44;56.11
85066;BME280;75401;52.588;13.224;2024-03-29T00:10:37;99515.78;;;12.28;59.24
85066;BME280;75401;52.588;13.224;2024-03-29T00:13:04;99503.13;;;12.43;61.48
85066;BME280;75401;52.588;13.224;2024-03-29T00:15:31;99502.66;;;12.40;61.61
85066;BME280;75401;52.588;13.224;2024-03-29T00:17:56;99507.03;;;12.41;62.28
85066;BME280;75401;52.588;13.224;2024-03-29T00:20:22;99499.34;;;12.38;60.73
85066;BME280;75401;52.588;13.224;2024-03-29T00:22:47;99500.06;;;12.25;61.33
85066;BME280;75401;52.588;13.224;2024-03-29T00:25:12;99509.97;;;12.25;63.00
85066;BME280;75401;52.588;13.224;2024-03-29T00:27:38;99511.19;;;12.22;61.58
85066;BME280;75401;52.588;13.224;2024-03-29T00:30:06;99509.53;;;12.21;63.80
85066;BME280;75401;52.588;13.224;2024-03-29T00:32:31;99513.59;;;12.17;61.61
85066;BME280;75401;52.588;13.224;2024-03-29T00:34:56;99517.28;;;12.16;63.67
85066;BME280;75401;52.588;13.224;2024-03-29T00:37:22;99517.03;;;12.11;62.13
85066;BME280;75401;52.588;13.224;2024-03-29T00:39:47;99516.78;;;12.06;61.82
85066;BME280;75401;52.588;13.224;2024-03-29T00:42:13;99518.53;;;11.92;60.77
85066;BME280;75401;52.588;13.224;2024-03-29T00:44:38;99530.59;;;12.03;60.95
85066;BME280;75401;52.588;13.224;2024-03-29T00:47:05;99532.59;;;12.01;61.00
85066;BME280;75401;52.588;13.224;2024-03-29T00:49:31;99543.41;;;12.08;61.31
85066;BME280;75401;52.588;13.224;2024-03-29T00:51:56;99538.44;;;12.05;60.81
85066;BME280;75401;52.588;13.224;2024-03-29T00:54:22;99535.81;;;11.90;61.42
85066;BME280;75401;52.588;13.224;2024-03-29T00:56:47;99527.06;;;12.03;60.76
85066;BME280;75401;52.588;13.224;2024-03-29T00:59:12;99536.13;;;12.02;61.39
85066;BME280;75401;52.588;13.224;2024-03-29T01:01:38;99533.38;;;11.95;60.91
85066;BME280;75401;52.588;13.224;2024-03-29T01:04:04;99529.97;;;11.86;61.71
85066;BME280;75401;52.588;13.224;2024-03-29T01:06:30;99524.72;;;11.93;59.99
85066;BME280;75401;52.588;13.224;2024-03-29T01:08:55;99533.63;;;11.79;61.33
85066;BME280;75401;52.588;13.224;2024-03-29T01:11:20;99533.53;;;11.72;61.06
85066;BME280;75401;52.588;13.224;2024-03-29T01:13:46;99537.97;;;11.80;61.15
85066;BME280;75401;52.588;13.224;2024-03-29T01:16:11;99530.75;;;11.80;61.51
85066;BME280;75401;52.588;13.224;2024-03-29T01:18:36;99534.25;;;11.81;61.75
85066;BME280;75401;52.588;13.224;2024-03-29T01:21:03;99541.97;;;11.69;62.80
85066;BME280;75401;52.588;13.224;2024-03-29T01:23:28;99523.00;;;11.56;61.53
85066;BME280;75401;52.588;13.224;2024-03-29T01:25:54;99527.25;;;11.51;62.82
85066;BME280;75401;52.588;13.224;2024-03-29T01:28:20;99535.56;;;11.56;62.86
85066;BME280;75401;52.588;13.224;2024-03-29T01:30:51;99532.03;;;11.55;63.03
85066;BME280;75401;52.588;13.224;2024-03-29T01:33:17;99541.94;;;11.40;62.68
85066;BME280;75401;52.588;13.224;2024-03-29T01:35:42;99546.09;;;11.43;63.71
85066;BME280;75401;52.588;13.224;2024-03-29T01:38:09;99542.88;;;11.32;63.23
85066;BME280;75401;52.588;13.224;2024-03-29T01:40:34;99540.84;;;11.20;63.41
85066;BME280;75401;52.588;13.224;2024-03-29T01:43:00;99543.91;;;11.31;63.60
85066;BME280;75401;52.588;13.224;2024-03-29T01:45:25;99547.22;;;11.33;63.20
85066;BME280;75401;52.588;13.224;2024-03-29T01:47:51;99542.44;;;11.29;62.15
85066;BME280;75401;52.588;13.224;2024-03-29T01:50:16;99548.16;;;11.26;63.04
85066;BME280;75401;52.588;13.224;2024-03-29T01:52:42;99545.47;;;11.26;63.39
85066;BME280;75401;52.588;13.224;2024-03-29T01:55:09;99548.16;;;11.26;63.38
85066;BME280;75401;52.588;13.224;2024-03-29T01:57:35;99550.63;;;11.27;63.00
85066;BME280;75401;52.588;13.224;2024-03-29T02:00:00;99546.50;;;11.25;62.92
85066;BME280;75401;52.588;13.224;2024-03-29T02:02:26;99557.69;;;11.14;63.43
85066;BME280;75401;52.588;13.224;2024-03-29T02:04:52;99544.09;;;11.15;63.19
85066;BME280;75401;52.588;13.224;2024-03-29T02:07:18;99550.66;;;11.13;63.36
85066;BME280;75401;52.588;13.224;2024-03-29T02:09:43;99559.69;;;11.12;62.81
85066;BME280;75401;52.588;13.224;2024-03-29T02:12:10;99561.72;;;11.10;63.13
85066;BME280;75401;52.588;13.224;2024-03-29T02:14:35;99558.59;;;11.06;63.55
85066;BME280;75401;52.588;13.224;2024-03-29T02:17:01;99566.50;;;11.00;63.30
85066;BME280;75401;52.588;13.224;2024-03-29T02:19:26;99555.78;;;10.85;62.88
85066;BME280;75401;52.588;13.224;2024-03-29T02:21:54;99554.88;;;10.93;63.40
85066;BME280;75401;52.588;13.224;2024-03-29T02:24:22;99563.84;;;11.00;63.67
85066;BME280;75401;52.588;13.224;2024-03-29T02:26:48;99555.31;;;10.96;63.00
85066;BME280;75401;52.588;13.224;2024-03-29T02:29:14;99555.88;;;10.92;63.81
85066;BME280;75401;52.588;13.224;2024-03-29T02:31:39;99568.63;;;10.90;63.65
85066;BME280;75401;52.588;13.224;2024-03-29T02:34:04;99566.84;;;10.82;63.89
85066;BME280;75401;52.588;13.224;2024-03-29T02:36:30;99562.34;;;10.83;63.33
85066;BME280;75401;52.588;13.224;2024-03-29T02:38:55;99565.66;;;10.85;63.17
85066;BME280;75401;52.588;13.224;2024-03-29T02:41:22;99571.72;;;10.79;63.31
85066;BME280;75401;52.588;13.224;2024-03-29T02:43:48;99572.75;;;10.78;63.88
85066;BME280;75401;52.588;13.224;2024-03-29T02:46:14;99582.63;;;10.77;63.24
85066;BME280;75401;52.588;13.224;2024-03-29T02:48:39;99576.34;;;10.70;62.72
85066;BME280;75401;52.588;13.224;2024-03-29T02:51:04;99568.47;;;10.68;63.63
85066;BME280;75401;52.588;13.224;2024-03-29T02:53:30;99570.97;;;10.70;63.72
85066;BME280;75401;52.588;13.224;2024-03-29T02:55:55;99568.38;;;10.62;63.32
85066;BME280;75401;52.588;13.224;2024-03-29T02:58:22;99565.88;;;10.60;63.98
85066;BME280;75401;52.588;13.224;2024-03-29T03:00:48;99570.19;;;10.47;64.23
85066;BME280;75401;52.588;13.224;2024-03-29T03:03:15;99570.00;;;10.48;64.36
85066;BME280;75401;52.588;13.224;2024-03-29T03:05:40;99585.19;;;10.48;64.89
85066;BME280;75401;52.588;13.224;2024-03-29T03:08:06;99591.56;;;10.47;64.75
85066;BME280;75401;52.588;13.224;2024-03-29T03:10:31;99598.75;;;10.46;64.62
85066;BME280;75401;52.588;13.224;2024-03-29T03:12:56;99598.47;;;10.41;64.76
85066;BME280;75401;52.588;13.224;2024-03-29T03:15:23;99604.16;;;10.38;65.11
85066;BME280;75401;52.588;13.224;2024-03-29T03:17:48;99601.84;;;10.35;64.88
85066;BME280;75401;52.588;13.224;2024-03-29T03:20:14;99598.69;;;10.32;64.54
85066;BME280;75401;52.588;13.224;2024-03-29T03:22:40;99603.75;;;10.27;64.80
85066;BME280;75401;52.588;13.224;2024-03-29T03:25:06;99603.25;;;10.23;64.98
85066;BME280;75401;52.588;13.224;2024-03-29T03:27:31;99607.75;;;10.23;64.76
85066;BME280;75401;52.588;13.224;2024-03-29T03:29:56;99613.31;;;10.21;64.98
85066;BME280;75401;52.588;13.224;2024-03-29T03:32:23;99620.28;;;10.22;65.48
85066;BME280;75401;52.588;13.224;2024-03-29T03:34:48;99618.69;;;10.13;64.66
85066;BME280;75401;52.588;13.224;2024-03-29T03:37:14;99624.69;;;10.15;65.15
85066;BME280;75401;52.588;13.224;2024-03-29T03:39:40;99622.66;;;10.17;64.85
85066;BME280;75401;52.588;13.224;2024-03-29T03:42:05;99624.34;;;10.18;64.29
85066;BME280;75401;52.588;13.224;2024-03-29T03:44:30;99642.06;;;10.19;64.22
85066;BME280;75401;52.588;13.224;2024-03-29T03:46:56;99636.69;;;10.19;64.48
85066;BME280;75401;52.588;13.224;2024-03-29T03:49:23;99626.50;;;10.15;64.11
85066;BME280;75401;52.588;13.224;2024-03-29T03:51:48;99619.19;;;10.17;64.14
85066;BME280;75401;52.588;13.224;2024-03-29T03:54:13;99616.31;;;10.18;64.50
85066;BME280;75401;52.588;13.224;2024-03-29T03:56:39;99599.16;;;10.13;64.42
85066;BME280;75401;52.588;13.224;2024-03-29T03:59:04;99593.13;;;10.10;64.39
85066;BME280;75401;52.588;13.224;2024-03-29T04:01:29;99590.63;;;10.09;64.35
85066;BME280;75401;52.588;13.224;2024-03-29T04:03:55;99586.19;;;10.01;64.28
85066;BME280;75401;52.588;13.224;2024-03-29T04:06:21;99594.38;;;9.92;64.99
85066;BME280;75401;52.588;13.224;2024-03-29T04:08:47;99599.38;;;9.95;64.97
85066;BME280;75401;52.588;13.224;2024-03-29T04:11:12;99602.06;;;9.95;64.71
85066;BME280;75401;52.588;13.224;2024-03-29T04:13:38;99600.56;;;9.92;65.05
85066;BME280;75401;52.588;13.224;2024-03-29T04:16:04;99552.50;;;9.62;65.46
85066;BME280;75401;52.588;13.224;2024-03-29T04:18:29;99593.09;;;9.88;65.30
85066;BME280;75401;52.588;13.224;2024-03-29T04:20:56;99597.09;;;9.84;65.13
85066;BME280;75401;52.588;13.224;2024-03-29T04:23:23;99607.97;;;9.82;64.96
85066;BME280;75401;52.588;13.224;2024-03-29T04:25:51;99598.16;;;9.75;65.31
85066;BME280;75401;52.588;13.224;2024-03-29T04:28:16;99603.50;;;9.75;65.27
85066;BME280;75401;52.588;13.224;2024-03-29T04:30:50;99599.88;;;9.68;66.09
85066;BME280;75401;52.588;13.224;2024-03-29T04:33:16;99601.38;;;9.62;65.03
85066;BME280;75401;52.588;13.224;2024-03-29T04:35:51;99596.06;;;9.62;65.34
85066;BME280;75401;52.588;13.224;2024-03-29T04:38:17;99601.88;;;9.66;64.99
85066;BME280;75401;52.588;13.224;2024-03-29T04:40:43;99600.03;;;9.66;64.92
85066;BME280;75401;52.588;13.224;2024-03-29T04:43:08;99603.38;;;9.68;64.45
85066;BME280;75401;52.588;13.224;2024-03-29T04:45:34;99598.84;;;9.69;65.08
85066;BME280;75401;52.588;13.224;2024-03-29T04:47:59;99593.88;;;9.66;64.68
85066;BME280;75401;52.588;13.224;2024-03-29T04:50:24;99577.84;;;9.66;64.71
85066;BME280;75401;52.588;13.224;2024-03-29T04:52:50;99574.53;;;9.56;64.68
85066;BME280;75401;52.588;13.224;2024-03-29T04:55:15;99601.50;;;9.69;64.23
85066;BME280;75401;52.588;13.224;2024-03-29T04:57:42;99588.16;;;9.69;64.90
85066;BME280;75401;52.588;13.224;2024-03-29T05:00:09;99583.31;;;9.72;64.65
85066;BME280;75401;52.588;13.224;2024-03-29T05:02:36;99582.66;;;9.70;64.37
85066;BME280;75401;52.588;13.224;2024-03-29T05:05:01;99578.16;;;9.71;64.19
85066;BME280;75401;52.588;13.224;2024-03-29T05:07:26;99578.97;;;9.71;64.01
85066;BME280;75401;52.588;13.224;2024-03-29T05:09:52;99602.19;;;9.71;64.18
85066;BME280;75401;52.588;13.224;2024-03-29T05:12:17;99616.53;;;9.70;64.19
85066;BME280;75401;52.588;13.224;2024-03-29T05:14:44;99602.53;;;9.68;64.08
85066;BME280;75401;52.588;13.224;2024-03-29T05:17:09;99607.22;;;9.66;63.92
85066;BME280;75401;52.588;13.224;2024-03-29T05:19:34;99616.19;;;9.73;64.00
85066;BME280;75401;52.588;13.224;2024-03-29T05:22:00;99613.00;;;9.77;64.27
85066;BME280;75401;52.588;13.224;2024-03-29T05:24:25;99625.84;;;9.74;64.14
85066;BME280;75401;52.588;13.224;2024-03-29T05:26:50;99623.34;;;9.80;64.67
85066;BME280;75401;52.588;13.224;2024-03-29T05:29:15;99622.81;;;9.85;63.54
85066;BME280;75401;52.588;13.224;2024-03-29T05:31:42;99625.16;;;9.88;63.27
85066;BME280;75401;52.588;13.224;2024-03-29T05:34:07;99635.47;;;9.91;63.10
85066;BME280;75401;52.588;13.224;2024-03-29T05:36:33;99596.44;;;9.82;63.78
85066;BME280;75401;52.588;13.224;2024-03-29T05:38:58;99612.91;;;10.01;63.32
85066;BME280;75401;52.588;13.224;2024-03-29T05:41:23;99586.34;;;10.00;64.16
85066;BME280;75401;52.588;13.224;2024-03-29T05:43:49;99583.31;;;10.03;64.00
85066;BME280;75401;52.588;13.224;2024-03-29T05:46:15;99593.47;;;10.07;63.68
85066;BME280;75401;52.588;13.224;2024-03-29T05:48:42;99602.81;;;10.11;63.68
85066;BME280;75401;52.588;13.224;2024-03-29T05:51:07;99603.50;;;10.14;63.26
85066;BME280;75401;52.588;13.224;2024-03-29T05:53:32;99608.13;;;10.20;63.23
85066;BME280;75401;52.588;13.224;2024-03-29T05:55:58;99605.09;;;10.23;63.38
85066;BME280;75401;52.588;13.224;2024-03-29T05:58:23;99603.91;;;10.25;63.18
85066;BME280;75401;52.588;13.224;2024-03-29T06:00:48;99620.44;;;10.29;62.27
85066;BME280;75401;52.588;13.224;2024-03-29T06:03:14;99611.88;;;10.33;62.68
85066;BME280;75401;52.588;13.224;2024-03-29T06:05:40;99623.06;;;10.37;62.54
85066;BME280;75401;52.588;13.224;2024-03-29T06:08:07;99639.09;;;10.37;62.32
85066;BME280;75401;52.588;13.224;2024-03-29T06:10:32;99630.19;;;10.44;62.43
85066;BME280;75401;52.588;13.224;2024-03-29T06:12:57;99637.47;;;10.50;62.48
85066;BME280;75401;52.588;13.224;2024-03-29T06:15:23;99639.16;;;10.51;62.17
85066;BME280;75401;52.588;13.224;2024-03-29T06:17:48;99649.31;;;10.56;60.83
85066;BME280;75401;52.588;13.224;2024-03-29T06:20:14;99645.00;;;10.55;60.79
85066;BME280;75401;52.588;13.224;2024-03-29T06:22:41;99648.72;;;10.68;61.11
85066;BME280;75401;52.588;13.224;2024-03-29T06:25:07;99639.97;;;10.74;61.41
85066;BME280;75401;52.588;13.224;2024-03-29T06:27:33;99647.09;;;10.82;61.29
85066;BME280;75401;52.588;13.224;2024-03-29T06:29:59;99649.25;;;10.87;60.16
85066;BME280;75401;52.588;13.224;2024-03-29T06:32:24;99655.38;;;10.95;60.54
85066;BME280;75401;52.588;13.224;2024-03-29T06:34:50;99656.94;;;11.04;60.03
85066;BME280;75401;52.588;13.224;2024-03-29T06:37:15;99659.53;;;11.12;60.59
85066;BME280;75401;52.588;13.224;2024-03-29T06:39:42;99658.34;;;11.15;59.74
85066;BME280;75401;52.588;13.224;2024-03-29T06:42:07;99662.69;;;11.16;59.16
85066;BME280;75401;52.588;13.224;2024-03-29T06:44:33;99663.09;;;11.27;59.99
85066;BME280;75401;52.588;13.224;2024-03-29T06:46:58;99670.56;;;11.32;58.89
85066;BME280;75401;52.588;13.224;2024-03-29T06:49:23;99678.78;;;11.45;58.45
85066;BME280;75401;52.588;13.224;2024-03-29T06:51:49;99690.63;;;11.51;58.57
85066;BME280;75401;52.588;13.224;2024-03-29T06:54:14;99677.78;;;11.61;57.57
85066;BME280;75401;52.588;13.224;2024-03-29T06:56:41;99680.69;;;11.74;58.64
85066;BME280;75401;52.588;13.224;2024-03-29T06:59:06;99683.28;;;11.82;58.50
85066;BME280;75401;52.588;13.224;2024-03-29T07:01:31;99687.44;;;11.84;57.15
85066;BME280;75401;52.588;13.224;2024-03-29T07:03:57;99678.94;;;11.95;57.49
85066;BME280;75401;52.588;13.224;2024-03-29T07:06:22;99672.56;;;11.96;56.40
85066;BME280;75401;52.588;13.224;2024-03-29T07:08:47;99671.44;;;12.06;57.20
85066;BME280;75401;52.588;13.224;2024-03-29T07:11:13;99680.13;;;12.08;56.08
85066;BME280;75401;52.588;13.224;2024-03-29T07:13:39;99696.84;;;12.10;56.16
85066;BME280;75401;52.588;13.224;2024-03-29T07:16:05;99696.91;;;12.16;55.34
85066;BME280;75401;52.588;13.224;2024-03-29T07:18:31;99701.47;;;12.16;54.98
85066;BME280;75401;52.588;13.224;2024-03-29T07:20:56;99719.03;;;12.18;54.74
85066;BME280;75401;52.588;13.224;2024-03-29T07:23:21;99713.59;;;12.26;55.24
85066;BME280;75401;52.588;13.224;2024-03-29T07:25:57;99675.88;;;12.13;54.32
85066;BME280;75401;52.588;13.224;2024-03-29T07:28:23;99715.13;;;12.35;54.38
85066;BME280;75401;52.588;13.224;2024-03-29T07:30:50;99718.94;;;12.26;54.40
85066;BME280;75401;52.588;13.224;2024-03-29T07:33:15;99720.75;;;12.40;55.39
85066;BME280;75401;52.588;13.224;2024-03-29T07:35:40;99708.75;;;12.36;54.23
85066;BME280;75401;52.588;13.224;2024-03-29T07:38:06;99747.25;;;12.65;54.64
85066;BME280;75401;52.588;13.224;2024-03-29T07:40:31;99741.06;;;12.64;53.90
85066;BME280;75401;52.588;13.224;2024-03-29T07:42:56;99729.63;;;12.77;54.05
85066;BME280;75401;52.588;13.224;2024-03-29T07:45:22;99743.38;;;12.52;53.37
85066;BME280;75401;52.588;13.224;2024-03-29T07:47:49;99732.38;;;12.62;53.48
85066;BME280;75401;52.588;13.224;2024-03-29T07:50:14;99731.84;;;12.73;53.71
85066;BME280;75401;52.588;13.224;2024-03-29T07:52:39;99727.47;;;12.87;53.66
85066;BME280;75401;52.588;13.224;2024-03-29T07:55:05;99734.56;;;12.94;53.94
85066;BME280;75401;52.588;13.224;2024-03-29T07:57:30;99741.34;;;12.90;53.46
85066;BME280;75401;52.588;13.224;2024-03-29T07:59:56;99748.03;;;13.01;53.60
85066;BME280;75401;52.588;13.224;2024-03-29T08:02:21;99750.59;;;12.88;53.64
85066;BME280;75401;52.588;13.224;2024-03-29T08:04:52;99767.66;;;13.01;53.40
85066;BME280;75401;52.588;13.224;2024-03-29T08:07:18;99776.72;;;13.15;53.63
85066;BME280;75401;52.588;13.224;2024-03-29T08:09:43;99769.91;;;13.12;52.93
85066;BME280;75401;52.588;13.224;2024-03-29T08:12:09;99767.13;;;13.27;52.86
85066;BME280;75401;52.588;13.224;2024-03-29T08:14:34;99762.72;;;13.19;52.84
85066;BME280;75401;52.588;13.224;2024-03-29T08:16:59;99758.44;;;13.25;52.67
85066;BME280;75401;52.588;13.224;2024-03-29T08:19:25;99757.84;;;13.30;52.82
85066;BME280;75401;52.588;13.224;2024-03-29T08:21:52;99765.44;;;13.47;54.20
85066;BME280;75401;52.588;13.224;2024-03-29T08:24:17;99758.25;;;13.54;54.89
85066;BME280;75401;52.588;13.224;2024-03-29T08:26:43;99755.03;;;13.59;55.46
85066;BME280;75401;52.588;13.224;2024-03-29T08:29:08;99752.97;;;13.61;54.66
85066;BME280;75401;52.588;13.224;2024-03-29T08:31:34;99739.97;;;13.64;55.17
85066;BME280;75401;52.588;13.224;2024-03-29T08:33:59;99719.09;;;13.66;55.74
85066;BME280;75401;52.588;13.224;2024-03-29T08:36:24;99723.25;;;13.69;57.10
85066;BME280;75401;52.588;13.224;2024-03-29T08:38:51;99713.75;;;13.73;56.60
85066;BME280;75401;52.588;13.224;2024-03-29T08:41:16;99705.09;;;13.77;56.92
85066;BME280;75401;52.588;13.224;2024-03-29T08:43:42;99714.25;;;13.83;56.82
85066;BME280;75401;52.588;13.224;2024-03-29T08:46:07;99720.69;;;13.88;56.19
85066;BME280;75401;52.588;13.224;2024-03-29T08:48:33;99730.66;;;13.95;55.71
85066;BME280;75401;52.588;13.224;2024-03-29T08:50:58;99721.78;;;14.01;56.31
85066;BME280;75401;52.588;13.224;2024-03-29T08:53:23;99731.38;;;14.10;55.82
85066;BME280;75401;52.588;13.224;2024-03-29T08:55:50;99716.91;;;14.17;55.07
85066;BME280;75401;52.588;13.224;2024-03-29T08:58:15;99719.84;;;14.29;55.65
85066;BME280;75401;52.588;13.224;2024-03-29T09:00:41;99725.94;;;14.44;54.84
85066;BME280;75401;52.588;13.224;2024-03-29T09:03:06;99716.28;;;14.56;54.47
85066;BME280;75401;52.588;13.224;2024-03-29T09:05:32;99714.44;;;14.70;53.80
85066;BME280;75401;52.588;13.224;2024-03-29T09:07:57;99720.28;;;14.80;53.64
85066;BME280;75401;52.588;13.224;2024-03-29T09:10:23;99726.09;;;14.83;52.97
85066;BME280;75401;52.588;13.224;2024-03-29T09:12:50;99725.28;;;14.89;52.79
85066;BME280;75401;52.588;13.224;2024-03-29T09:15:16;99724.84;;;14.92;51.18
85066;BME280;75401;52.588;13.224;2024-03-29T09:17:41;99737.94;;;15.02;52.32
85066;BME280;75401;52.588;13.224;2024-03-29T09:20:07;99734.00;;;15.11;52.83
85066;BME280;75401;52.588;13.224;2024-03-29T09:22:32;99733.19;;;15.17;51.78
85066;BME280;75401;52.588;13.224;2024-03-29T09:24:58;99735.88;;;15.24;51.90
85066;BME280;75401;52.588;13.224;2024-03-29T09:27:24;99730.72;;;15.29;52.52
85066;BME280;75401;52.588;13.224;2024-03-29T09:29:50;99722.66;;;15.35;53.16
85066;BME280;75401;52.588;13.224;2024-03-29T09:32:16;99735.28;;;15.41;51.15
85066;BME280;75401;52.588;13.224;2024-03-29T09:34:41;99732.00;;;15.52;52.32
85066;BME280;75401;52.588;13.224;2024-03-29T09:37:06;99730.78;;;15.48;50.60
85066;BME280;75401;52.588;13.224;2024-03-29T09:39:32;99733.03;;;15.51;50.79
85066;BME280;75401;52.588;13.224;2024-03-29T09:41:58;99738.63;;;15.63;51.52
85066;BME280;75401;52.588;13.224;2024-03-29T09:44:31;99732.59;;;15.67;50.31
85066;BME280;75401;52.588;13.224;2024-03-29T09:46:58;99727.41;;;15.72;52.08
85066;BME280;75401;52.588;13.224;2024-03-29T09:49:24;99738.63;;;15.56;48.96
85066;BME280;75401;52.588;13.224;2024-03-29T09:51:50;99745.84;;;15.82;48.57
85066;BME280;75401;52.588;13.224;2024-03-29T09:54:16;99739.84;;;15.93;48.98
85066;BME280;75401;52.588;13.224;2024-03-29T09:56:42;99723.25;;;15.83;48.05
85066;BME280;75401;52.588;13.224;2024-03-29T09:59:07;99741.91;;;15.85;46.99
85066;BME280;75401;52.588;13.224;2024-03-29T10:01:34;99728.88;;;15.75;47.97
85066;BME280;75401;52.588;13.224;2024-03-29T10:04:03;99733.22;;;15.89;47.89
85066;BME280;75401;52.588;13.224;2024-03-29T10:06:29;99731.97;;;15.92;47.75
85066;BME280;75401;52.588;13.224;2024-03-29T10:08:55;99729.88;;;15.87;47.37
85066;BME280;75401;52.588;13.224;2024-03-29T10:11:21;99729.88;;;15.94;48.40
85066;BME280;75401;52.588;13.224;2024-03-29T10:13:46;99723.25;;;15.77;47.82
85066;BME280;75401;52.588;13.224;2024-03-29T10:16:12;99722.00;;;15.79;49.76
85066;BME280;75401;52.588;13.224;2024-03-29T10:18:40;99710.03;;;15.55;48.30
85066;BME280;75401;52.588;13.224;2024-03-29T10:21:07;99696.53;;;15.68;49.30
85066;BME280;75401;52.588;13.224;2024-03-29T10:23:34;99687.56;;;15.74;51.56
85066;BME280;75401;52.588;13.224;2024-03-29T10:26:00;99698.59;;;15.73;50.80
85066;BME280;75401;52.588;13.224;2024-03-29T10:28:30;99694.22;;;15.59;51.05
85066;BME280;75401;52.588;13.224;2024-03-29T10:30:55;99696.13;;;15.52;51.47
85066;BME280;75401;52.588;13.224;2024-03-29T10:33:21;99681.19;;;15.43;52.87
85066;BME280;75401;52.588;13.224;2024-03-29T10:35:46;99698.59;;;15.40;52.32
85066;BME280;75401;52.588;13.224;2024-03-29T10:38:13;99696.72;;;15.34;52.43
85066;BME280;75401;52.588;13.224;2024-03-29T10:40:40;99690.09;;;15.30;53.20
85066;BME280;75401;52.588;13.224;2024-03-29T10:43:06;99688.00;;;15.26;53.17
85066;BME280;75401;52.588;13.224;2024-03-29T10:45:32;99689.69;;;15.40;52.92
85066;BME280;75401;52.588;13.224;2024-03-29T10:47:59;99692.19;;;15.48;53.99
85066;BME280;75401;52.588;13.224;2024-03-29T10:50:25;99696.94;;;15.52;53.98
85066;BME280;75401;52.588;13.224;2024-03-29T10:52:52;99697.75;;;15.40;54.31
85066;BME280;75401;52.588;13.224;2024-03-29T10:55:21;99696.72;;;15.34;55.06
85066;BME280;75401;52.588;13.224;2024-03-29T10:57:48;99692.56;;;15.38;57.03
85066;BME280;75401;52.588;13.224;2024-03-29T11:00:16;99693.22;;;15.47;55.55
85066;BME280;75401;52.588;13.224;2024-03-29T11:02:48;99686.78;;;15.35;57.71
85066;BME280;75401;52.588;13.224;2024-03-29T11:05:15;99678.91;;;15.27;55.33
85066;BME280;75401;52.588;13.224;2024-03-29T11:07:42;99682.63;;;15.32;55.80
85066;BME280;75401;52.588;13.224;2024-03-29T11:10:13;99676.00;;;15.02;55.70
85066;BME280;75401;52.588;13.224;2024-03-29T11:12:47;99661.06;;;15.39;56.28
85066;BME280;75401;52.588;13.224;2024-03-29T11:15:22;99663.56;;;15.47;56.87
85066;BME280;75401;52.588;13.224;2024-03-29T11:17:51;99645.53;;;15.47;56.03
85066;BME280;75401;52.588;13.224;2024-03-29T11:20:18;99635.56;;;15.41;55.69
85066;BME280;75401;52.588;13.224;2024-03-29T11:22:44;99644.25;;;15.63;55.53
85066;BME280;75401;52.588;13.224;2024-03-29T11:25:10;99647.78;;;15.70;56.32
85066;BME280;75401;52.588;13.224;2024-03-29T11:27:36;99635.28;;;15.82;56.18
85066;BME280;75401;52.588;13.224;2024-03-29T11:30:03;99628.81;;;15.90;55.56
85066;BME280;75401;52.588;13.224;2024-03-29T11:32:36;99622.81;;;15.94;55.07
85066;BME280;75401;52.588;13.224;2024-03-29T11:35:02;99632.56;;;15.89;54.38
85066;BME280;75401;52.588;13.224;2024-03-29T11:37:29;99626.69;;;16.05;54.92
85066;BME280;75401;52.588;13.224;2024-03-29T11:39:55;99616.31;;;16.08;55.12
85066;BME280;75401;52.588;13.224;2024-03-29T11:42:35;99617.75;;;16.11;54.79
85066;BME280;75401;52.588;13.224;2024-03-29T11:45:00;99612.94;;;16.19;54.01
85066;BME280;75401;52.588;13.224;2024-03-29T11:47:27;99616.19;;;16.34;54.01
85066;BME280;75401;52.588;13.224;2024-03-29T11:49:55;99621.94;;;16.45;54.28
85066;BME280;75401;52.588;13.224;2024-03-29T11:52:21;99611.50;;;16.48;53.50
85066;BME280;75401;52.588;13.224;2024-03-29T11:54:46;99614.09;;;16.36;52.96
85066;BME280;75401;52.588;13.224;2024-03-29T11:57:12;99623.19;;;16.42;53.10
85066;BME280;75401;52.588;13.224;2024-03-29T11:59:37;99624.63;;;16.45;52.96
85066;BME280;75401;52.588;13.224;2024-03-29T12:02:04;99580.75;;;16.18;52.76
85066;BME280;75401;52.588;13.224;2024-03-29T12:04:34;99618.63;;;16.43;52.83
85066;BME280;75401;52.588;13.224;2024-03-29T12:06:59;99598.72;;;16.37;54.88
85066;BME280;75401;52.588;13.224;2024-03-29T12:09:25;99629.81;;;16.46;55.05
85066;BME280;75401;52.588;13.224;2024-03-29T12:11:51;99622.09;;;16.56;54.76
85066;BME280;75401;52.588;13.224;2024-03-29T12:14:16;99620.50;;;16.42;53.40
85066;BME280;75401;52.588;13.224;2024-03-29T12:16:44;99622.94;;;16.50;53.40
85066;BME280;75401;52.588;13.224;2024-03-29T12:19:10;99617.81;;;16.35;53.12
85066;BME280;75401;52.588;13.224;2024-03-29T12:21:36;99623.22;;;16.35;53.05
85066;BME280;75401;52.588;13.224;2024-03-29T12:24:02;99624.41;;;16.46;52.99
85066;BME280;75401;52.588;13.224;2024-03-29T12:26:28;99620.50;;;16.42;52.70
85066;BME280;75401;52.588;13.224;2024-03-29T12:28:54;99621.28;;;16.49;54.44
85066;BME280;75401;52.588;13.224;2024-03-29T12:31:19;99601.53;;;16.49;53.00
85066;BME280;75401;52.588;13.224;2024-03-29T12:33:51;99566.00;;;16.20;53.00
85066;BME280;75401;52.588;13.224;2024-03-29T12:36:17;99600.13;;;16.53;53.76
85066;BME280;75401;52.588;13.224;2024-03-29T12:38:44;99597.16;;;16.61;54.35
85066;BME280;75401;52.588;13.224;2024-03-29T12:41:09;99583.34;;;16.75;53.93
85066;BME280;75401;52.588;13.224;2024-03-29T12:43:34;99577.03;;;16.81;53.32